Time;durP1;ratioP1;P1;durP2;ratioP2;P2;SDS_P1;SDS_P2;PMS_P1;PMS_P2;Temp;Humidity;BMP_temperature;BMP_pressure;BME280_temperature;BME280_humidity;BME280_pressure;Samples;Min_cycle;Max_cycle;Signal;HPM_P1;HPM_P2
2022/01/23 00:02:20;;;;;;;41.80;16.75;;;;;;;-5.95;74.91;99623.44;5081049;28;20119;-73
2022/01/23 00:04:45;;;;;;;43.97;17.85;;;;;;;-5.92;74.75;99613.25;5072815;28;20430;-73
2022/01/23 00:07:13;;;;;;;37.53;13.75;;;;;;;-5.91;74.79;99608.78;5084435;28;20642;-72
2022/01/23 00:09:40;;;;;;;48.40;18.80;;;;;;;-5.87;74.41;99605.59;5087273;27;20048;-72
2022/01/23 00:12:12;;;;;;;50.92;18.42;;;;;;;-5.81;74.97;99603.28;5086443;28;20028;-73
2022/01/23 00:17:23;;;;;;;46.10;17.48;;;;;;;-5.70;74.42;99603.81;5087365;28;20115;-73
2022/01/23 00:19:50;;;;;;;46.78;16.63;;;;;;;-5.63;74.95;99609.34;5087321;28;20069;-73
2022/01/23 00:22:15;;;;;;;63.75;20.60;;;;;;;-5.60;74.66;99606.34;5082457;28;20081;-74
2022/01/23 00:32:47;;;;;;;40.90;15.27;;;;;;;-5.40;74.67;99601.53;5110808;28;20050;-69
2022/01/23 00:35:12;;;;;;;42.70;15.77;;;;;;;-5.31;74.95;99593.53;5111996;28;20051;-69
2022/01/23 00:37:38;;;;;;;49.20;18.20;;;;;;;-5.26;74.66;99599.25;5110675;28;20016;-70
2022/01/23 00:40:05;;;;;;;47.58;16.48;;;;;;;-5.26;75.04;99601.91;5110114;28;20110;-71
2022/01/23 00:42:31;;;;;;;33.58;12.98;;;;;;;-5.28;74.46;99599.38;5111051;28;20031;-69
2022/01/23 00:45:11;;;;;;;31.33;13.38;;;;;;;-5.28;74.61;99599.38;5110732;28;20027;-68
2022/01/23 00:47:37;;;;;;;26.58;10.48;;;;;;;-5.23;74.59;99599.72;5110684;28;20031;-69
2022/01/23 00:50:02;;;;;;;33.78;13.00;;;;;;;-5.22;74.93;99597.91;5110670;28;20031;-69
2022/01/23 00:52:28;;;;;;;30.55;12.95;;;;;;;-5.15;74.66;99596.25;5110541;28;20042;-69
2022/01/23 00:54:53;;;;;;;38.67;14.50;;;;;;;-5.13;74.76;99594.25;5110247;28;20073;-69
2022/01/23 00:57:19;;;;;;;36.30;12.85;;;;;;;-5.13;74.54;99604.09;5111036;28;20027;-69
2022/01/23 00:59:44;;;;;;;44.30;15.50;;;;;;;-5.14;74.41;99599.75;5110332;28;20070;-69
2022/01/23 01:02:09;;;;;;;33.97;13.77;;;;;;;-5.18;73.99;99598.41;5110432;28;20043;-69
2022/01/23 01:04:35;;;;;;;37.85;15.35;;;;;;;-5.21;74.09;99606.75;5112843;27;20039;-69
2022/01/23 01:07:00;;;;;;;37.88;14.82;;;;;;;-5.25;74.28;99606.25;5113996;27;20861;-70
2022/01/23 01:09:27;;;;;;;37.03;14.85;;;;;;;-5.31;74.48;99606.91;5110049;28;20114;-69
2022/01/23 01:30:34;;;;;;;35.92;15.25;;;;;;;-5.59;74.50;99596.50;5109901;28;20038;-68
2022/01/23 01:36:00;;;;;;;38.10;15.10;;;;;;;-5.51;74.32;99606.38;5068519;28;20372;-68
2022/01/23 01:38:25;;;;;;;39.83;15.77;;;;;;;-5.46;74.82;99607.53;5109439;28;20023;-68
2022/01/23 01:40:51;;;;;;;34.33;14.40;;;;;;;-5.41;74.52;99605.22;5108348;28;20048;-68
2022/01/23 01:43:17;;;;;;;37.75;15.40;;;;;;;-5.35;74.35;99610.91;5109887;28;20376;-68
2022/01/23 01:45:43;;;;;;;41.13;15.52;;;;;;;-5.33;75.00;99600.91;5091261;28;20521;-68
2022/01/23 01:48:12;;;;;;;41.58;16.10;;;;;;;-5.30;74.63;99596.06;5108796;28;20161;-68
2022/01/23 01:50:43;;;;;;;37.53;15.93;;;;;;;-5.26;74.38;99597.38;5109197;28;20035;-68
2022/01/23 01:53:11;;;;;;;57.33;20.83;;;;;;;-5.31;74.53;99583.69;5109017;28;20036;-69
2022/01/23 01:55:42;;;;;;;51.90;20.65;;;;;;;-5.34;74.71;99596.53;5108661;28;20031;-68
2022/01/23 01:58:21;;;;;;;52.50;22.77;;;;;;;-5.34;74.79;99599.22;5108667;28;20027;-68
2022/01/23 02:00:54;;;;;;;56.72;23.27;;;;;;;-5.31;74.62;99594.41;5108581;28;20024;-68
2022/01/23 02:08:31;;;;;;;58.08;24.27;;;;;;;-5.26;74.62;99604.59;5108243;28;20058;-68
2022/01/23 02:11:09;;;;;;;76.63;31.50;;;;;;;-5.23;75.26;99602.41;5108688;28;20022;-68
2022/01/23 02:51:44;;;;;;;41.33;15.40;;;;;;;-5.57;75.63;99631.94;5111456;28;20076;-68
2022/01/23 02:54:27;;;;;;;36.33;14.55;;;;;;;-5.59;75.64;99631.25;5112791;28;20047;-68
2022/01/23 02:56:56;;;;;;;39.78;15.05;;;;;;;-5.60;75.64;99629.56;5110585;28;20053;-68
2022/01/23 03:04:24;;;;;;;43.00;15.23;;;;;;;-5.70;75.56;99621.69;5112631;28;20487;-68
2022/01/23 03:06:58;;;;;;;45.85;16.75;;;;;;;-5.72;75.43;99623.69;5112465;28;20032;-67
2022/01/23 03:14:42;;;;;;;38.38;15.60;;;;;;;-5.70;75.92;99637.72;5112558;28;21370;-68
2022/01/23 03:33:36;;;;;;;47.08;16.50;;;;;;;-5.50;75.69;99629.44;5112143;28;20024;-68
2022/01/23 03:36:03;;;;;;;49.13;18.00;;;;;;;-5.48;76.27;99638.94;5111545;28;20026;-68
2022/01/23 03:38:29;;;;;;;48.13;18.80;;;;;;;-5.43;76.28;99630.47;5111507;28;20036;-68
2022/01/23 03:40:54;;;;;;;43.17;17.48;;;;;;;-5.41;76.51;99623.13;5110625;28;20155;-68
2022/01/23 03:43:27;;;;;;;53.60;18.35;;;;;;;-5.36;76.66;99627.97;5108305;27;20023;-68
2022/01/23 03:51:09;;;;;;;42.70;17.13;;;;;;;-5.17;76.72;99627.69;5110860;28;20104;-68
2022/01/23 03:53:35;;;;;;;44.42;17.23;;;;;;;-5.10;77.01;99623.34;5110969;28;20035;-68
2022/01/23 03:56:00;;;;;;;38.58;17.00;;;;;;;-5.00;76.80;99625.00;5111067;28;20027;-68
2022/01/23 03:58:26;;;;;;;31.40;12.88;;;;;;;-4.89;77.04;99622.00;5091974;28;20115;-67
2022/01/23 04:00:51;;;;;;;37.85;17.48;;;;;;;-4.82;76.91;99620.34;5109754;28;20035;-68
2022/01/23 04:03:19;;;;;;;43.30;17.77;;;;;;;-4.81;76.99;99615.81;5105932;28;20751;-68
2022/01/23 04:05:44;;;;;;;38.60;16.92;;;;;;;-4.83;76.49;99617.81;5110140;28;20493;-67
2022/01/23 04:08:10;;;;;;;47.92;19.08;;;;;;;-4.81;76.39;99632.72;5091753;28;20016;-67
2022/01/23 04:10:36;;;;;;;42.60;16.63;;;;;;;-4.71;76.90;99635.22;5109947;28;20475;-68
2022/01/23 04:34:21;;;;;;;40.75;15.88;;;;;;;-4.64;76.90;99635.38;5110345;28;20035;-68
2022/01/23 04:45:21;;;;;;;37.63;16.38;;;;;;;-4.56;77.28;99645.25;5108559;28;20058;-68
2022/01/23 05:01:20;;;;;;;52.47;19.83;;;;;;;-4.54;77.30;99665.50;5109711;28;20054;-68
2022/01/23 05:06:36;;;;;;;68.45;25.10;;;;;;;-4.57;77.41;99660.47;5108764;28;20517;-68
2022/01/23 05:09:02;;;;;;;56.17;21.42;;;;;;;-4.58;76.80;99656.13;5110849;28;20031;-68
2022/01/23 05:11:27;;;;;;;67.82;25.40;;;;;;;-4.57;76.91;99657.78;5110353;28;20032;-69
2022/01/23 05:13:53;;;;;;;79.43;28.52;;;;;;;-4.54;77.21;99657.47;5092425;28;20069;-68
2022/01/23 05:16:19;;;;;;;82.78;27.30;;;;;;;-4.53;77.21;99666.34;5092269;28;20028;-68
2022/01/23 05:18:44;;;;;;;80.60;28.48;;;;;;;-4.56;77.78;99664.81;5110037;28;20076;-69
2022/01/23 05:23:48;;;;;;;61.60;23.83;;;;;;;-4.48;78.20;99669.31;5108493;28;20031;-68
2022/01/23 05:26:13;;;;;;;60.70;24.23;;;;;;;-4.49;77.79;99676.53;5110538;28;20030;-68
2022/01/23 05:28:39;;;;;;;67.18;26.20;;;;;;;-4.46;77.93;99682.56;5111255;28;20106;-68
2022/01/23 05:31:04;;;;;;;59.17;22.45;;;;;;;-4.45;77.69;99676.19;5111073;28;20015;-68
2022/01/23 05:33:30;;;;;;;60.10;24.83;;;;;;;-4.47;77.97;99683.56;5092590;28;20059;-68
2022/01/23 05:35:55;;;;;;;51.65;22.42;;;;;;;-4.48;78.01;99690.75;5111546;28;20391;-68
2022/01/23 05:38:20;;;;;;;51.80;21.35;;;;;;;-4.47;78.07;99689.75;5110918;28;20034;-68
2022/01/23 05:40:54;;;;;;;50.05;21.45;;;;;;;-4.48;78.05;99690.75;5089911;28;20036;-68
2022/01/23 05:43:20;;;;;;;47.80;20.63;;;;;;;-4.45;77.97;99698.44;5110864;28;20054;-68
2022/01/23 05:45:46;;;;;;;41.65;19.17;;;;;;;-4.39;78.19;99699.63;5093026;28;20474;-68
2022/01/23 05:48:11;;;;;;;46.45;19.67;;;;;;;-4.36;78.10;99699.31;5111087;28;20047;-68
2022/01/23 05:50:37;;;;;;;44.03;19.98;;;;;;;-4.37;78.21;99700.31;5111163;28;20032;-68
2022/01/23 05:53:02;;;;;;;44.35;19.42;;;;;;;-4.35;78.19;99695.63;5110719;28;20023;-68
2022/01/23 05:55:28;;;;;;;40.60;18.27;;;;;;;-4.31;78.22;99686.25;5110906;28;20153;-68
2022/01/23 05:57:53;;;;;;;50.42;22.23;;;;;;;-4.29;78.33;99686.91;5111078;28;20160;-69
2022/01/23 06:00:19;;;;;;;42.15;19.02;;;;;;;-4.27;78.29;99687.56;5092736;28;20150;-68
2022/01/23 06:02:44;;;;;;;39.13;17.73;;;;;;;-4.22;78.86;99685.22;5110459;28;20019;-68
2022/01/23 06:05:10;;;;;;;48.28;18.65;;;;;;;-4.19;78.23;99689.41;5109924;28;20040;-68
2022/01/23 06:07:35;;;;;;;43.10;18.25;;;;;;;-4.19;78.27;99682.19;5091806;28;20020;-68
2022/01/23 06:10:01;;;;;;;39.75;16.38;;;;;;;-4.15;78.76;99687.22;5110616;28;20394;-68
2022/01/23 06:12:26;;;;;;;48.90;19.52;;;;;;;-4.12;78.63;99679.69;5092595;28;20020;-67
2022/01/23 06:14:52;;;;;;;48.03;20.13;;;;;;;-4.11;78.24;99686.72;5110543;28;20486;-68
2022/01/23 06:17:18;;;;;;;51.38;20.40;;;;;;;-4.10;77.83;99685.72;5110952;28;20024;-68
2022/01/23 06:19:44;;;;;;;43.92;18.08;;;;;;;-4.08;78.12;99683.69;5110653;28;20038;-68
2022/01/23 06:22:09;;;;;;;48.88;24.42;;;;;;;-4.03;78.13;99683.19;5110708;28;20453;-68
2022/01/23 06:24:36;;;;;;;46.72;19.67;;;;;;;-3.99;78.45;99697.91;5091187;28;20024;-68
2022/01/23 06:27:02;;;;;;;50.47;21.50;;;;;;;-3.99;77.89;99700.59;5110737;28;20020;-68
2022/01/23 06:29:31;;;;;;;47.03;19.25;;;;;;;-3.99;77.88;99699.75;5109889;28;20089;-68
2022/01/23 06:31:58;;;;;;;42.25;19.60;;;;;;;-4.00;78.04;99720.34;5110789;28;20050;-68
2022/01/23 06:34:25;;;;;;;44.13;19.15;;;;;;;-3.98;77.46;99722.84;5091723;28;20032;-68
2022/01/23 06:36:52;;;;;;;51.05;19.33;;;;;;;-4.00;78.31;99728.41;5093079;28;20032;-68
2022/01/23 06:39:18;;;;;;;48.25;19.88;;;;;;;-4.02;78.05;99730.41;5092525;28;20024;-69
2022/01/23 06:41:43;;;;;;;45.85;19.30;;;;;;;-3.99;78.25;99738.13;5110299;28;20118;-68
2022/01/23 06:44:10;;;;;;;47.67;20.17;;;;;;;-3.97;78.23;99740.59;5110098;28;20118;-72
2022/01/23 06:46:38;;;;;;;43.90;19.70;;;;;;;-3.96;77.90;99745.81;5092039;28;20073;-72
2022/01/23 06:49:04;;;;;;;42.55;19.20;;;;;;;-3.94;77.81;99751.00;5092239;28;20027;-72
2022/01/23 06:51:29;;;;;;;42.38;19.35;;;;;;;-3.94;77.91;99749.16;5091612;28;20727;-72
2022/01/23 06:53:54;;;;;;;40.33;18.35;;;;;;;-3.89;77.90;99754.84;5110369;28;20016;-72
2022/01/23 06:56:20;;;;;;;40.72;17.63;;;;;;;-3.83;78.15;99752.47;5109913;28;20028;-73
2022/01/23 06:58:45;;;;;;;32.65;16.67;;;;;;;-3.77;77.90;99767.88;5109353;28;20419;-72
2022/01/23 07:01:11;;;;;;;36.47;15.50;;;;;;;-3.76;77.70;99757.00;5108893;28;20083;-72
2022/01/23 07:03:37;;;;;;;39.88;17.85;;;;;;;-3.72;77.99;99753.97;5109370;28;20471;-73
2022/01/23 07:06:04;;;;;;;47.83;19.20;;;;;;;-3.72;78.01;99749.44;5109852;28;20529;-72
2022/01/23 07:08:30;;;;;;;101.25;30.15;;;;;;;-3.69;77.91;99759.00;5109804;28;20391;-72
2022/01/23 07:10:56;;;;;;;143.02;40.22;;;;;;;-3.66;77.76;99761.31;5109616;28;20056;-73
2022/01/23 07:13:22;;;;;;;131.82;38.28;;;;;;;-3.65;77.58;99757.63;5109811;28;20091;-72
2022/01/23 07:15:48;;;;;;;126.35;39.22;;;;;;;-3.62;77.76;99768.88;5110559;28;20065;-72
2022/01/23 07:18:15;;;;;;;139.60;41.63;;;;;;;-3.60;77.41;99764.16;5113190;28;20027;-72
2022/01/23 07:20:42;;;;;;;126.40;37.42;;;;;;;-3.57;77.50;99772.88;5113726;28;20024;-73
2022/01/23 07:23:07;;;;;;;122.88;34.95;;;;;;;-3.54;77.77;99772.53;5094272;28;20548;-71
2022/01/23 07:25:33;;;;;;;39.55;16.50;;;;;;;-3.49;77.81;99764.81;5111010;28;20071;-72
2022/01/23 07:27:59;;;;;;;41.65;17.38;;;;;;;-3.50;77.39;99768.50;5111945;28;20023;-71
2022/01/23 07:30:37;;;;;;;61.78;27.38;;;;;;;-3.49;77.54;99776.38;5111278;28;20019;-71
2022/01/23 07:33:03;;;;;;;54.90;25.08;;;;;;;-3.39;77.74;99773.47;5111853;28;20119;-71
2022/01/23 07:35:29;;;;;;;58.65;26.45;;;;;;;-3.29;77.71;99773.31;5093767;28;20432;-72
2022/01/23 07:37:54;;;;;;;39.25;20.30;;;;;;;-3.18;77.71;99774.75;5112146;28;20046;-72
2022/01/23 07:40:19;;;;;;;42.90;21.27;;;;;;;-3.24;77.10;99773.59;5112262;28;20069;-71
2022/01/23 07:42:45;;;;;;;46.33;23.42;;;;;;;-3.29;76.99;99773.31;5093394;28;20192;-71
2022/01/23 07:45:11;;;;;;;48.15;25.42;;;;;;;-3.32;76.99;99776.34;5111424;28;20035;-71
2022/01/23 07:47:37;;;;;;;49.20;22.83;;;;;;;-3.31;76.96;99783.38;5110467;28;20106;-71
2022/01/23 07:50:06;;;;;;;41.75;20.75;;;;;;;-3.29;77.42;99784.84;5111858;28;20678;-71
2022/01/23 07:52:35;;;;;;;50.72;22.60;;;;;;;-3.28;77.18;99793.75;5093061;28;20065;-72
2022/01/23 07:55:11;;;;;;;51.17;23.63;;;;;;;-3.33;77.01;99799.63;5112192;28;20103;-71
2022/01/23 07:57:38;;;;;;;52.25;23.80;;;;;;;-3.35;76.89;99809.69;5110102;28;20067;-72
2022/01/23 08:00:08;;;;;;;49.45;23.65;;;;;;;-3.32;77.16;99820.09;5110870;28;20032;-72
2022/01/23 08:02:34;;;;;;;47.80;22.30;;;;;;;-3.26;76.85;99831.13;5093756;28;20027;-71
2022/01/23 08:04:59;;;;;;;48.20;22.63;;;;;;;-3.24;77.21;99831.81;5111003;28;20122;-71
2022/01/23 08:09:55;;;;;;;77.75;27.88;;;;;;;-3.17;77.18;99847.03;5111811;28;20554;-71
2022/01/23 08:12:21;;;;;;;65.45;23.15;;;;;;;-3.10;76.90;99846.34;5111346;28;20028;-71
2022/01/23 08:14:47;;;;;;;63.78;24.17;;;;;;;-3.05;77.09;99852.03;5111529;28;20158;-71
2022/01/23 08:17:12;;;;;;;105.18;34.40;;;;;;;-3.04;77.27;99857.22;5112167;28;20426;-72
2022/01/23 08:19:38;;;;;;;79.07;27.40;;;;;;;-2.99;77.04;99854.84;5111788;28;20122;-71
2022/01/23 08:22:04;;;;;;;86.32;30.15;;;;;;;-2.97;77.29;99843.97;5111963;28;20055;-72
2022/01/23 08:24:29;;;;;;;59.00;22.17;;;;;;;-2.86;77.08;99850.78;5111411;28;20081;-72
2022/01/23 08:26:55;;;;;;;50.42;21.25;;;;;;;-2.82;77.14;99841.38;5109203;27;20069;-73
2022/01/23 08:29:20;;;;;;;36.97;18.13;;;;;;;-2.81;76.99;99843.06;5092722;28;20031;-72
2022/01/23 08:31:47;;;;;;;42.53;18.92;;;;;;;-2.77;76.64;99854.28;5108487;28;20027;-75
2022/01/23 08:34:12;;;;;;;46.20;21.10;;;;;;;-2.77;76.70;99849.75;5109247;28;20096;-73
2022/01/23 08:36:38;;;;;;;49.65;24.00;;;;;;;-2.73;76.98;99851.09;5092589;28;20468;-74
2022/01/23 08:39:04;;;;;;;55.67;26.50;;;;;;;-2.66;76.64;99855.75;5110171;28;20031;-74
2022/01/23 08:44:14;;;;;;;52.85;25.27;;;;;;;-2.60;76.69;99853.19;5111309;28;20054;-74
2022/01/23 08:46:39;;;;;;;40.58;19.17;;;;;;;-2.50;76.97;99846.78;5111596;28;20418;-73
2022/01/23 08:49:05;;;;;;;45.78;22.02;;;;;;;-2.53;76.65;99845.25;5090245;28;20016;-74
2022/01/23 08:51:30;;;;;;;44.88;20.98;;;;;;;-2.59;76.63;99849.50;5109165;28;20077;-69
2022/01/23 08:53:58;;;;;;;43.75;18.70;;;;;;;-2.57;76.73;99849.31;5108227;28;20107;-70
2022/01/23 08:56:23;;;;;;;45.00;19.83;;;;;;;-2.51;76.70;99855.84;5109510;28;20813;-73
2022/01/23 08:58:49;;;;;;;45.53;18.77;;;;;;;-2.45;76.76;99863.19;5108589;28;20035;-72
2022/01/23 09:01:14;;;;;;;65.15;23.95;;;;;;;-2.45;76.67;99863.19;5091200;28;20028;-69
2022/01/23 09:03:40;;;;;;;41.08;17.35;;;;;;;-2.42;76.51;99865.50;5091657;28;20065;-70
2022/01/23 09:06:07;;;;;;;73.82;23.92;;;;;;;-2.37;76.56;99865.00;5110291;28;20038;-71
2022/01/23 09:08:35;;;;;;;67.85;23.55;;;;;;;-2.30;76.66;99882.09;5092448;28;20110;-75
2022/01/23 09:11:07;;;;;;;74.60;24.85;;;;;;;-2.25;76.66;99879.72;5109034;28;20399;-72
2022/01/23 09:13:54;;;;;;;53.10;22.25;;;;;;;-2.25;76.54;99882.41;5110946;28;20027;-72
2022/01/23 09:16:20;;;;;;;83.20;29.42;;;;;;;-2.24;76.59;99881.34;5110930;28;20032;-72
2022/01/23 09:18:46;;;;;;;51.85;21.00;;;;;;;-2.30;76.28;99876.72;5092752;28;20093;-72
2022/01/23 09:21:12;;;;;;;59.70;21.75;;;;;;;-2.28;76.32;99888.94;5110731;28;20016;-72
2022/01/23 09:23:37;;;;;;;72.28;28.52;;;;;;;-2.25;76.13;99885.91;5111319;28;20107;-72
2022/01/23 09:26:08;;;;;;;52.10;21.00;;;;;;;-2.19;76.42;99887.03;5110356;28;20031;-72
2022/01/23 09:28:35;;;;;;;40.10;18.17;;;;;;;-2.13;76.28;99883.66;5093208;28;20722;-72
2022/01/23 09:31:01;;;;;;;48.28;21.05;;;;;;;-2.13;76.32;99894.41;5110833;28;20161;-72
2022/01/23 09:33:27;;;;;;;45.55;18.85;;;;;;;-2.10;76.16;99891.34;5108990;28;20472;-72
2022/01/23 09:35:53;;;;;;;38.85;19.13;;;;;;;-2.03;76.23;99886.09;5108190;28;20502;-72
2022/01/23 09:38:18;;;;;;;38.47;16.55;;;;;;;-1.95;76.20;99886.03;5091058;28;20019;-71
2022/01/23 09:40:45;;;;;;;45.88;18.90;;;;;;;-1.86;76.16;99878.78;5108642;28;20040;-71
2022/01/23 09:43:19;;;;;;;44.92;18.67;;;;;;;-1.80;76.18;99887.97;5108615;28;20034;-72
2022/01/23 09:45:47;;;;;;;34.22;16.00;;;;;;;-1.76;76.03;99897.34;5110921;28;20142;-72
2022/01/23 09:48:13;;;;;;;39.05;17.83;;;;;;;-1.70;75.85;99898.47;5111328;28;20046;-71
2022/01/23 09:50:44;;;;;;;47.10;21.27;;;;;;;-1.64;75.74;99897.75;5090157;28;20031;-72
2022/01/23 09:53:11;;;;;;;36.15;16.50;;;;;;;-1.55;75.65;99896.69;5108005;28;20030;-72
2022/01/23 09:55:39;;;;;;;35.08;15.77;;;;;;;-1.57;75.98;99892.47;5111573;28;20027;-71
2022/01/23 09:58:05;;;;;;;33.28;14.85;;;;;;;-1.59;75.32;99889.97;5091459;28;20024;-72
2022/01/23 10:00:31;;;;;;;46.58;19.33;;;;;;;-1.56;75.63;99881.53;5111823;28;20032;-72
2022/01/23 10:02:57;;;;;;;44.58;19.80;;;;;;;-1.50;76.04;99888.91;5111120;28;20063;-72
2022/01/23 10:05:23;;;;;;;37.55;16.83;;;;;;;-1.36;75.89;99886.41;5114084;28;20055;-73
2022/01/23 10:07:49;;;;;;;37.58;17.75;;;;;;;-1.28;75.38;99888.19;5111281;28;20059;-73
2022/01/23 10:10:22;;;;;;;34.88;15.65;;;;;;;-1.27;75.15;99893.38;5110892;28;20088;-72
2022/01/23 10:12:52;;;;;;;45.97;21.58;;;;;;;-1.35;74.71;99880.00;5108910;28;20034;-72
2022/01/23 10:15:21;;;;;;;42.67;18.88;;;;;;;-1.41;74.64;99867.25;5091798;28;20034;-71
2022/01/23 10:17:46;;;;;;;52.10;23.27;;;;;;;-1.43;74.69;99869.34;5110463;28;20035;-72
2022/01/23 10:20:13;;;;;;;47.03;21.92;;;;;;;-1.40;74.97;99864.41;5110379;28;20096;-76
2022/01/23 10:22:42;;;;;;;38.58;18.23;;;;;;;-1.39;74.90;99855.31;5086963;28;20039;-73
2022/01/23 10:25:10;;;;;;;57.78;25.38;;;;;;;-1.33;74.60;99855.59;5108575;28;20034;-72
2022/01/23 10:27:55;;;;;;;58.47;28.63;;;;;;;-1.30;74.69;99856.06;5089488;28;20036;-73
2022/01/23 10:30:24;;;;;;;44.40;21.42;;;;;;;-1.33;74.88;99851.03;5107830;28;20024;-72
2022/01/23 10:33:15;;;;;;;42.95;21.83;;;;;;;-1.28;74.85;99862.09;5107329;28;20371;-73
2022/01/23 10:35:58;;;;;;;36.47;17.55;;;;;;;-1.27;74.61;99862.94;5086589;28;20042;-72
2022/01/23 10:38:27;;;;;;;30.75;15.32;;;;;;;-1.23;74.58;99865.06;5087361;28;20085;-73
2022/01/23 10:41:06;;;;;;;25.63;12.18;;;;;;;-1.15;74.78;99866.84;5107749;28;20122;-72
2022/01/23 10:49:01;;;;;;;37.35;14.80;;;;;;;-0.91;73.94;99846.06;5105605;28;20622;-73
2022/01/23 10:51:31;;;;;;;38.75;15.50;;;;;;;-1.00;73.56;99842.59;5108861;28;20202;-72
2022/01/23 10:53:59;;;;;;;37.80;16.60;;;;;;;-1.00;73.72;99850.69;5110695;28;20080;-72
2022/01/23 10:56:26;;;;;;;39.10;18.67;;;;;;;-1.03;73.83;99845.69;5110574;27;20035;-72
2022/01/23 10:59:09;;;;;;;38.95;19.35;;;;;;;-1.01;73.60;99846.31;5108848;28;20107;-71
2022/01/23 11:01:35;;;;;;;64.57;34.25;;;;;;;-1.00;73.94;99855.25;5107926;28;20122;-71
2022/01/23 11:04:19;;;;;;;55.72;36.33;;;;;;;-0.99;73.47;99849.66;5109988;28;20411;-74
2022/01/23 11:07:11;;;;;;;41.33;23.83;;;;;;;-0.94;73.32;99841.84;5091858;28;20038;-71
2022/01/23 11:09:37;;;;;;;30.60;13.98;;;;;;;-0.92;73.49;99847.91;5115649;27;20100;-71
2022/01/23 11:12:13;;;;;;;33.17;15.95;;;;;;;-0.95;72.88;99852.84;5110702;28;20035;-73
2022/01/23 11:17:25;;;;;;;34.53;16.55;;;;;;;-0.91;73.41;99835.28;5110530;27;20045;-72
2022/01/23 11:19:57;;;;;;;35.80;19.48;;;;;;;-0.82;73.33;99836.00;5092666;28;20041;-71
2022/01/23 11:22:28;;;;;;;29.08;14.23;;;;;;;-0.73;73.55;99840.28;5111710;27;20039;-72
2022/01/23 11:24:58;;;;;;;29.02;13.90;;;;;;;-0.64;73.26;99844.53;5113927;27;20046;-72
2022/01/23 11:27:30;;;;;;;;;;;;;;;-0.54;73.12;99846.06;5113134;27;20104;-71
2022/01/23 11:29:57;;;;;;;33.17;18.02;;;;;;;-0.48;73.32;99843.47;5090072;28;19955;-70
2022/01/23 11:32:25;;;;;;;28.35;15.48;;;;;;;-0.40;72.82;99847.91;5112349;28;20100;-71
2022/01/23 11:35:00;;;;;;;25.52;14.88;;;;;;;-0.39;72.34;99840.66;5091603;28;20031;-72
2022/01/23 11:37:26;;;;;;;25.95;15.07;;;;;;;-0.39;72.39;99844.19;5091101;28;20057;-72
2022/01/23 11:39:58;;;;;;;29.90;13.73;;;;;;;-0.34;71.98;99840.91;5116808;27;20028;-72
2022/01/23 11:56:25;;;;;;;70.72;30.67;;;;;;;-0.01;71.57;99852.06;5085453;28;20471;-72
2022/01/23 11:59:09;;;;;;;76.72;27.65;;;;;;;-0.05;71.34;99852.66;5085053;28;20035;-73
2022/01/23 12:01:35;;;;;;;86.05;32.33;;;;;;;-0.10;71.56;99861.28;5087852;28;20249;-73
2022/01/23 12:04:11;;;;;;;107.22;42.53;;;;;;;-0.15;71.44;99869.13;5089463;28;20460;-73
2022/01/23 12:06:47;;;;;;;82.80;39.45;;;;;;;-0.18;71.08;99867.66;5082564;28;20024;-73
2022/01/23 12:09:12;;;;;;;64.18;32.00;;;;;;;-0.21;71.39;99868.03;5080539;28;20691;-71
2022/01/23 12:11:47;;;;;;;61.78;30.08;;;;;;;-0.15;71.56;99877.22;5077617;28;20041;-72
2022/01/23 12:16:59;;;;;;;67.75;34.97;;;;;;;-0.01;71.90;99870.94;5097275;28;20039;-70
2022/01/23 12:19:27;;;;;;;54.45;28.88;;;;;;;0.05;72.26;99877.41;5086549;28;20917;-71
2022/01/23 12:21:56;;;;;;;47.63;21.63;;;;;;;0.02;71.65;99864.31;5089506;28;20482;-71
2022/01/23 12:24:24;;;;;;;63.10;30.77;;;;;;;-0.02;70.90;99873.84;5091635;27;20032;-73
2022/01/23 12:26:52;;;;;;;89.70;36.50;;;;;;;0.06;71.70;99871.00;5091228;27;20862;-70
2022/01/23 12:29:28;;;;;;;52.00;26.20;;;;;;;0.07;71.08;99869.16;5080193;28;20023;-71
2022/01/23 12:32:26;;;;;;;50.33;26.02;;;;;;;0.10;71.54;99864.19;5079157;27;20111;-71
2022/01/23 12:34:56;;;;;;;35.03;19.42;;;;;;;0.05;70.44;99871.19;5079731;28;20031;-71
2022/01/23 12:37:23;;;;;;;41.28;21.27;;;;;;;0.03;70.59;99863.28;5092639;28;20024;-70
2022/01/23 12:40:28;;;;;;;66.25;31.63;;;;;;;0.04;70.92;99867.66;5081028;28;20059;-71
2022/01/23 12:43:08;;;;;;;40.58;19.88;;;;;;;0.03;70.66;99875.94;5088293;28;20036;-71
2022/01/23 12:45:54;;;;;;;39.65;19.02;;;;;;;0.03;71.09;99884.03;5088497;28;20035;-71
2022/01/23 12:48:26;;;;;;;39.53;18.77;;;;;;;0.05;71.23;99882.81;5078705;28;20028;-72
2022/01/23 12:50:58;;;;;;;37.65;18.38;;;;;;;-0.01;70.96;99880.91;5082317;28;20038;-72
2022/01/23 12:53:43;;;;;;;40.50;17.00;;;;;;;-0.02;70.70;99874.66;5080467;28;20028;-72
2022/01/23 12:56:12;;;;;;;43.03;19.00;;;;;;;-0.07;70.91;99884.38;5086135;28;20572;-72
2022/01/23 12:58:39;;;;;;;52.03;28.08;;;;;;;-0.10;70.73;99877.47;5088123;28;20414;-72
2022/01/23 13:01:07;;;;;;;42.20;22.58;;;;;;;-0.10;70.92;99873.97;5089837;28;20027;-72
2022/01/23 13:03:34;;;;;;;60.80;24.00;;;;;;;-0.08;71.02;99878.13;5069542;28;20047;-72
2022/01/23 13:06:00;;;;;;;52.55;22.55;;;;;;;-0.07;70.97;99874.41;5085117;28;20534;-72
2022/01/23 13:08:29;;;;;;;58.10;24.90;;;;;;;-0.06;70.95;99867.16;5083995;28;20016;-72
2022/01/23 13:16:13;;;;;;;35.47;17.35;;;;;;;-0.13;70.97;99883.25;5084755;28;20553;-72
2022/01/23 13:32:20;;;;;;;59.65;25.88;;;;;;;-0.26;70.67;99867.75;5076690;27;20144;-71
2022/01/23 13:34:59;;;;;;;67.35;29.42;;;;;;;-0.24;70.64;99864.91;5069340;28;20042;-72
2022/01/23 13:37:27;;;;;;;45.60;20.55;;;;;;;-0.21;70.61;99867.22;5083252;28;20535;-72
2022/01/23 13:40:02;;;;;;;47.42;23.58;;;;;;;-0.18;70.46;99864.09;5084929;28;20034;-71
2022/01/23 14:04:19;;;;;;;63.25;27.38;;;;;;;-0.11;70.58;99878.50;5085178;28;19919;-71
2022/01/23 14:06:46;;;;;;;71.85;31.75;;;;;;;-0.17;70.81;99885.50;5086174;28;20051;-72
2022/01/23 14:09:13;;;;;;;58.67;26.63;;;;;;;-0.16;70.85;99881.78;5087489;28;20031;-73
2022/01/23 14:11:39;;;;;;;83.63;36.00;;;;;;;-0.18;70.51;99888.38;5085668;28;20027;-73
2022/01/23 14:14:24;;;;;;;123.60;45.13;;;;;;;-0.19;70.71;99886.69;5069702;28;20058;-73
2022/01/23 14:16:52;;;;;;;73.95;33.97;;;;;;;-0.24;70.95;99892.69;5077643;28;20476;-73
2022/01/23 14:19:28;;;;;;;92.55;37.20;;;;;;;-0.29;70.43;99892.41;5086482;28;20039;-72
2022/01/23 14:21:57;;;;;;;66.30;28.80;;;;;;;-0.31;70.50;99894.44;5086529;28;20035;-72
2022/01/23 14:24:27;;;;;;;76.27;30.33;;;;;;;-0.35;70.29;99902.09;5086476;28;20419;-72
2022/01/23 14:27:13;;;;;;;54.53;23.97;;;;;;;-0.35;71.05;99902.09;5085200;28;20725;-72
2022/01/23 14:29:55;;;;;;;87.03;34.67;;;;;;;-0.39;70.72;99898.09;5083142;28;20126;-70
2022/01/23 14:32:33;;;;;;;81.10;32.08;;;;;;;-0.41;70.59;99892.06;5082799;28;20077;-71
2022/01/23 14:35:07;;;;;;;107.07;37.97;;;;;;;-0.46;70.51;99892.66;5081550;28;20106;-70
2022/01/23 14:37:33;;;;;;;67.63;28.27;;;;;;;-0.42;70.61;99901.19;5080069;28;20542;-71
2022/01/23 14:40:20;;;;;;;84.07;34.97;;;;;;;-0.48;70.59;99901.94;5083061;28;20054;-72
2022/01/23 14:43:04;;;;;;;59.47;25.45;;;;;;;-0.56;70.49;99902.88;5105827;28;20437;-72
2022/01/23 14:45:34;;;;;;;69.80;26.00;;;;;;;-0.60;70.36;99906.97;5111959;28;20028;-71
2022/01/23 14:48:02;;;;;;;100.18;37.72;;;;;;;-0.60;70.46;99909.66;5110981;28;20104;-71
2022/01/23 14:50:30;;;;;;;85.93;32.63;;;;;;;-0.59;70.53;99911.34;5113794;28;20020;-71
2022/01/23 14:52:56;;;;;;;91.20;34.58;;;;;;;-0.60;70.54;99910.47;5091143;28;20546;-71
2022/01/23 14:55:21;;;;;;;92.93;36.13;;;;;;;-0.56;71.13;99915.50;5094741;28;20023;-71
2022/01/23 14:57:48;;;;;;;72.15;33.42;;;;;;;-0.56;70.44;99905.56;5113321;28;20024;-70
2022/01/23 15:00:16;;;;;;;180.45;78.82;;;;;;;-0.56;70.53;99918.19;5094261;28;20024;-71
2022/01/23 15:02:42;;;;;;;135.85;51.95;;;;;;;-0.53;70.91;99925.91;5114220;28;20035;-70
2022/01/23 15:05:08;;;;;;;326.77;128.35;;;;;;;-0.55;71.07;99926.09;5114463;28;20031;-71
2022/01/23 15:07:40;;;;;;;278.67;109.60;;;;;;;-0.60;70.10;99925.81;5114155;28;20112;-71
2022/01/23 15:10:06;;;;;;;102.93;37.95;;;;;;;-0.65;70.63;99917.47;5096031;28;20077;-71
2022/01/23 15:12:32;;;;;;;84.55;32.03;;;;;;;-0.72;70.67;99917.38;5114009;28;20027;-71